Oberwart, Austria
Current Conditions -  °F | °C
As of 12:20 PM on Tuesday 27 Jan 2015 (Local Time) from LOWG Reporting Station
Broken Clouds Broken Clouds  
Wind Chill: 25°   Ceiling: 15000
Heat Index: 30°   Visibility: 6mi
Dew Point: 27°   Wind: 5mph
Humidity: 86%   Direction: 160°SSE
Pressure: 29.97"   Gusts: NA
Location:  47.29°N, 16.2°E
Report Text: LOWG 271020Z 16004KT 9999 FEW040 BKN150 M01/M03 Q1015 R17/1///95 NOSIG
Loading
Personal Weather Stations






























Interactive Weather Map New forecast layout! Learn more

10-Day Weather Forecast

Advertisements
Track Severe Weather on mobile